sensor_id;sensor_type;location;lat;lon;timestamp;P1;durP1;ratioP1;P2;durP2;ratioP2
2728;SDS011;1372;47.956;7.830;2022-10-16T00:01:47;1.50;;;1.40;;
2728;SDS011;1372;47.956;7.830;2022-10-16T00:04:15;1.40;;;1.30;;
2728;SDS011;1372;47.956;7.830;2022-10-16T00:06:46;1.80;;;1.30;;
2728;SDS011;1372;47.956;7.830;2022-10-16T00:09:15;1.03;;;0.93;;
2728;SDS011;1372;47.956;7.830;2022-10-16T00:11:43;1.40;;;1.10;;
2728;SDS011;1372;47.956;7.830;2022-10-16T00:14:13;1.80;;;1.13;;
2728;SDS011;1372;47.956;7.830;2022-10-16T00:16:44;1.40;;;1.30;;
2728;SDS011;1372;47.956;7.830;2022-10-16T00:19:13;1.33;;;1.23;;
2728;SDS011;1372;47.956;7.830;2022-10-16T00:21:42;1.77;;;0.90;;
2728;SDS011;1372;47.956;7.830;2022-10-16T00:24:11;1.77;;;1.10;;
2728;SDS011;1372;47.956;7.830;2022-10-16T00:26:39;1.40;;;1.30;;
2728;SDS011;1372;47.956;7.830;2022-10-16T00:29:08;1.20;;;1.10;;
2728;SDS011;1372;47.956;7.830;2022-10-16T00:31:37;1.80;;;1.13;;
2728;SDS011;1372;47.956;7.830;2022-10-16T00:34:09;1.10;;;1.00;;
2728;SDS011;1372;47.956;7.830;2022-10-16T00:36:40;1.90;;;1.17;;
2728;SDS011;1372;47.956;7.830;2022-10-16T00:39:09;1.23;;;1.13;;
2728;SDS011;1372;47.956;7.830;2022-10-16T00:41:37;3.07;;;0.80;;
2728;SDS011;1372;47.956;7.830;2022-10-16T00:47:12;1.60;;;1.10;;
2728;SDS011;1372;47.956;7.830;2022-10-16T00:49:49;1.17;;;0.90;;
2728;SDS011;1372;47.956;7.830;2022-10-16T00:52:22;1.70;;;0.90;;
2728;SDS011;1372;47.956;7.830;2022-10-16T00:54:54;1.83;;;1.13;;
2728;SDS011;1372;47.956;7.830;2022-10-16T00:57:26;0.97;;;0.97;;
2728;SDS011;1372;47.956;7.830;2022-10-16T00:59:55;0.90;;;0.90;;
2728;SDS011;1372;47.956;7.830;2022-10-16T01:02:24;3.37;;;1.50;;
2728;SDS011;1372;47.956;7.830;2022-10-16T01:04:55;0.90;;;0.90;;
2728;SDS011;1372;47.956;7.830;2022-10-16T01:07:29;1.60;;;1.13;;
2728;SDS011;1372;47.956;7.830;2022-10-16T01:10:08;3.07;;;1.23;;
2728;SDS011;1372;47.956;7.830;2022-10-16T01:12:48;0.80;;;0.77;;
2728;SDS011;1372;47.956;7.830;2022-10-16T01:15:24;1.43;;;1.13;;
2728;SDS011;1372;47.956;7.830;2022-10-16T01:18:00;2.60;;;1.30;;
2728;SDS011;1372;47.956;7.830;2022-10-16T01:20:39;1.77;;;0.87;;
2728;SDS011;1372;47.956;7.830;2022-10-16T01:23:21;2.03;;;0.90;;
2728;SDS011;1372;47.956;7.830;2022-10-16T01:26:08;2.07;;;1.10;;
2728;SDS011;1372;47.956;7.830;2022-10-16T01:29:07;2.70;;;1.00;;
2728;SDS011;1372;47.956;7.830;2022-10-16T01:31:41;2.73;;;0.70;;
2728;SDS011;1372;47.956;7.830;2022-10-16T01:34:16;1.37;;;1.00;;
2728;SDS011;1372;47.956;7.830;2022-10-16T01:36:53;3.03;;;0.90;;
2728;SDS011;1372;47.956;7.830;2022-10-16T01:39:28;1.33;;;0.60;;
2728;SDS011;1372;47.956;7.830;2022-10-16T01:42:03;1.33;;;1.20;;
2728;SDS011;1372;47.956;7.830;2022-10-16T01:44:37;2.37;;;1.73;;
2728;SDS011;1372;47.956;7.830;2022-10-16T01:47:07;1.70;;;1.37;;
2728;SDS011;1372;47.956;7.830;2022-10-16T01:49:38;2.33;;;1.50;;
2728;SDS011;1372;47.956;7.830;2022-10-16T01:52:11;1.87;;;1.20;;
2728;SDS011;1372;47.956;7.830;2022-10-16T01:54:45;1.50;;;1.37;;
2728;SDS011;1372;47.956;7.830;2022-10-16T01:57:20;1.83;;;1.07;;
2728;SDS011;1372;47.956;7.830;2022-10-16T01:59:53;2.93;;;1.20;;
2728;SDS011;1372;47.956;7.830;2022-10-16T02:02:26;1.73;;;1.20;;
2728;SDS011;1372;47.956;7.830;2022-10-16T02:05:02;2.20;;;1.20;;
2728;SDS011;1372;47.956;7.830;2022-10-16T02:07:37;2.00;;;1.00;;
2728;SDS011;1372;47.956;7.830;2022-10-16T02:10:07;1.20;;;1.10;;
2728;SDS011;1372;47.956;7.830;2022-10-16T02:12:37;2.23;;;1.20;;
2728;SDS011;1372;47.956;7.830;2022-10-16T02:15:11;0.93;;;0.93;;
2728;SDS011;1372;47.956;7.830;2022-10-16T02:17:42;2.77;;;1.30;;
2728;SDS011;1372;47.956;7.830;2022-10-16T02:20:11;1.10;;;1.00;;
2728;SDS011;1372;47.956;7.830;2022-10-16T02:22:40;2.40;;;0.97;;
2728;SDS011;1372;47.956;7.830;2022-10-16T02:25:15;0.80;;;0.80;;
2728;SDS011;1372;47.956;7.830;2022-10-16T02:27:48;1.07;;;1.07;;
2728;SDS011;1372;47.956;7.830;2022-10-16T02:30:25;1.67;;;1.10;;
2728;SDS011;1372;47.956;7.830;2022-10-16T02:33:00;1.23;;;1.03;;
2728;SDS011;1372;47.956;7.830;2022-10-16T02:35:32;1.10;;;1.00;;
2728;SDS011;1372;47.956;7.830;2022-10-16T02:38:04;1.20;;;1.00;;
2728;SDS011;1372;47.956;7.830;2022-10-16T02:40:33;1.73;;;1.07;;
2728;SDS011;1372;47.956;7.830;2022-10-16T02:43:03;2.50;;;1.70;;
2728;SDS011;1372;47.956;7.830;2022-10-16T02:45:36;3.73;;;1.00;;
2728;SDS011;1372;47.956;7.830;2022-10-16T02:48:07;1.07;;;1.00;;
2728;SDS011;1372;47.956;7.830;2022-10-16T02:50:36;3.37;;;1.13;;
2728;SDS011;1372;47.956;7.830;2022-10-16T02:53:04;1.50;;;1.10;;
2728;SDS011;1372;47.956;7.830;2022-10-16T02:55:33;2.63;;;1.00;;
2728;SDS011;1372;47.956;7.830;2022-10-16T02:58:01;2.40;;;0.87;;
2728;SDS011;1372;47.956;7.830;2022-10-16T03:00:30;1.10;;;1.07;;
2728;SDS011;1372;47.956;7.830;2022-10-16T03:03:00;2.30;;;1.20;;
2728;SDS011;1372;47.956;7.830;2022-10-16T03:05:29;1.17;;;0.97;;
2728;SDS011;1372;47.956;7.830;2022-10-16T03:07:57;1.23;;;1.13;;
2728;SDS011;1372;47.956;7.830;2022-10-16T03:10:27;1.30;;;1.17;;
2728;SDS011;1372;47.956;7.830;2022-10-16T03:12:55;1.67;;;1.00;;
2728;SDS011;1372;47.956;7.830;2022-10-16T03:15:24;1.50;;;1.07;;
2728;SDS011;1372;47.956;7.830;2022-10-16T03:17:54;2.43;;;1.43;;
2728;SDS011;1372;47.956;7.830;2022-10-16T03:20:26;1.57;;;1.47;;
2728;SDS011;1372;47.956;7.830;2022-10-16T03:22:54;2.40;;;1.00;;
2728;SDS011;1372;47.956;7.830;2022-10-16T03:25:23;1.63;;;1.00;;
2728;SDS011;1372;47.956;7.830;2022-10-16T03:27:52;1.30;;;1.20;;
2728;SDS011;1372;47.956;7.830;2022-10-16T03:30:21;1.90;;;1.30;;
2728;SDS011;1372;47.956;7.830;2022-10-16T03:32:49;3.93;;;1.43;;
2728;SDS011;1372;47.956;7.830;2022-10-16T03:35:23;1.70;;;1.27;;
2728;SDS011;1372;47.956;7.830;2022-10-16T03:37:53;1.40;;;1.30;;
2728;SDS011;1372;47.956;7.830;2022-10-16T03:40:23;1.20;;;1.10;;
2728;SDS011;1372;47.956;7.830;2022-10-16T03:42:51;1.43;;;1.33;;
2728;SDS011;1372;47.956;7.830;2022-10-16T03:45:21;1.70;;;1.20;;
2728;SDS011;1372;47.956;7.830;2022-10-16T03:47:50;2.00;;;1.30;;
2728;SDS011;1372;47.956;7.830;2022-10-16T03:50:19;2.33;;;1.10;;
2728;SDS011;1372;47.956;7.830;2022-10-16T03:52:48;2.93;;;1.27;;
2728;SDS011;1372;47.956;7.830;2022-10-16T03:55:17;2.53;;;1.23;;
2728;SDS011;1372;47.956;7.830;2022-10-16T03:57:48;1.80;;;1.20;;
2728;SDS011;1372;47.956;7.830;2022-10-16T04:00:16;3.37;;;1.13;;
2728;SDS011;1372;47.956;7.830;2022-10-16T04:02:45;2.00;;;1.87;;
2728;SDS011;1372;47.956;7.830;2022-10-16T04:05:14;3.30;;;1.50;;
2728;SDS011;1372;47.956;7.830;2022-10-16T04:07:43;2.70;;;1.43;;
2728;SDS011;1372;47.956;7.830;2022-10-16T04:10:15;2.70;;;1.03;;
2728;SDS011;1372;47.956;7.830;2022-10-16T04:12:44;2.87;;;1.10;;
2728;SDS011;1372;47.956;7.830;2022-10-16T04:15:12;1.63;;;1.30;;
2728;SDS011;1372;47.956;7.830;2022-10-16T04:17:41;1.80;;;1.50;;
2728;SDS011;1372;47.956;7.830;2022-10-16T04:20:11;4.60;;;1.40;;
2728;SDS011;1372;47.956;7.830;2022-10-16T04:22:42;6.93;;;1.43;;
2728;SDS011;1372;47.956;7.830;2022-10-16T04:25:11;1.40;;;1.30;;
2728;SDS011;1372;47.956;7.830;2022-10-16T04:27:41;4.73;;;1.50;;
2728;SDS011;1372;47.956;7.830;2022-10-16T04:30:11;3.47;;;1.20;;
2728;SDS011;1372;47.956;7.830;2022-10-16T04:32:42;1.33;;;1.23;;
2728;SDS011;1372;47.956;7.830;2022-10-16T04:35:11;1.53;;;1.43;;
2728;SDS011;1372;47.956;7.830;2022-10-16T04:37:39;3.03;;;1.40;;
2728;SDS011;1372;47.956;7.830;2022-10-16T04:40:08;1.87;;;1.57;;
2728;SDS011;1372;47.956;7.830;2022-10-16T04:42:38;3.40;;;1.60;;
2728;SDS011;1372;47.956;7.830;2022-10-16T04:45:09;1.20;;;1.10;;
2728;SDS011;1372;47.956;7.830;2022-10-16T04:47:39;2.47;;;1.30;;
2728;SDS011;1372;47.956;7.830;2022-10-16T04:50:07;1.60;;;1.50;;
2728;SDS011;1372;47.956;7.830;2022-10-16T04:52:39;1.73;;;1.63;;
2728;SDS011;1372;47.956;7.830;2022-10-16T04:55:08;1.50;;;1.40;;
2728;SDS011;1372;47.956;7.830;2022-10-16T04:57:39;2.30;;;1.57;;
2728;SDS011;1372;47.956;7.830;2022-10-16T05:00:11;1.70;;;1.10;;
2728;SDS011;1372;47.956;7.830;2022-10-16T05:02:40;1.53;;;1.30;;
2728;SDS011;1372;47.956;7.830;2022-10-16T05:05:09;1.93;;;1.07;;
2728;SDS011;1372;47.956;7.830;2022-10-16T05:07:38;2.23;;;1.10;;
2728;SDS011;1372;47.956;7.830;2022-10-16T05:10:06;1.30;;;1.20;;
2728;SDS011;1372;47.956;7.830;2022-10-16T05:12:35;1.30;;;1.20;;
2728;SDS011;1372;47.956;7.830;2022-10-16T05:15:04;3.77;;;1.40;;
2728;SDS011;1372;47.956;7.830;2022-10-16T05:17:35;2.00;;;1.10;;
2728;SDS011;1372;47.956;7.830;2022-10-16T05:20:07;1.47;;;1.37;;
2728;SDS011;1372;47.956;7.830;2022-10-16T05:22:35;2.10;;;1.40;;
2728;SDS011;1372;47.956;7.830;2022-10-16T05:25:06;2.50;;;1.33;;
2728;SDS011;1372;47.956;7.830;2022-10-16T05:27:35;2.80;;;1.10;;
2728;SDS011;1372;47.956;7.830;2022-10-16T05:30:04;1.37;;;1.20;;
2728;SDS011;1372;47.956;7.830;2022-10-16T05:32:45;1.90;;;1.40;;
2728;SDS011;1372;47.956;7.830;2022-10-16T05:35:15;1.50;;;1.40;;
2728;SDS011;1372;47.956;7.830;2022-10-16T05:37:45;1.70;;;1.57;;
2728;SDS011;1372;47.956;7.830;2022-10-16T05:40:14;1.63;;;1.53;;
2728;SDS011;1372;47.956;7.830;2022-10-16T05:42:43;2.23;;;1.60;;
2728;SDS011;1372;47.956;7.830;2022-10-16T05:45:12;1.83;;;1.73;;
2728;SDS011;1372;47.956;7.830;2022-10-16T05:47:42;2.13;;;1.70;;
2728;SDS011;1372;47.956;7.830;2022-10-16T05:50:11;1.90;;;1.50;;
2728;SDS011;1372;47.956;7.830;2022-10-16T05:52:40;1.83;;;1.73;;
2728;SDS011;1372;47.956;7.830;2022-10-16T05:55:13;1.50;;;1.40;;
2728;SDS011;1372;47.956;7.830;2022-10-16T05:57:42;1.70;;;1.30;;
2728;SDS011;1372;47.956;7.830;2022-10-16T06:00:11;2.00;;;1.30;;
2728;SDS011;1372;47.956;7.830;2022-10-16T06:02:41;1.77;;;1.60;;
2728;SDS011;1372;47.956;7.830;2022-10-16T06:05:13;1.63;;;1.00;;
2728;SDS011;1372;47.956;7.830;2022-10-16T06:07:42;1.57;;;1.47;;
2728;SDS011;1372;47.956;7.830;2022-10-16T06:10:13;4.10;;;1.10;;
2728;SDS011;1372;47.956;7.830;2022-10-16T06:12:49;1.40;;;1.30;;
2728;SDS011;1372;47.956;7.830;2022-10-16T06:15:18;1.30;;;1.20;;
2728;SDS011;1372;47.956;7.830;2022-10-16T06:17:50;1.20;;;0.93;;
2728;SDS011;1372;47.956;7.830;2022-10-16T06:20:19;3.27;;;1.40;;
2728;SDS011;1372;47.956;7.830;2022-10-16T06:22:47;1.60;;;1.30;;
2728;SDS011;1372;47.956;7.830;2022-10-16T06:25:18;1.90;;;1.33;;
2728;SDS011;1372;47.956;7.830;2022-10-16T06:27:47;3.17;;;1.30;;
2728;SDS011;1372;47.956;7.830;2022-10-16T06:30:16;4.07;;;2.63;;
2728;SDS011;1372;47.956;7.830;2022-10-16T06:32:45;6.00;;;3.70;;
2728;SDS011;1372;47.956;7.830;2022-10-16T06:35:15;36.07;;;22.80;;
2728;SDS011;1372;47.956;7.830;2022-10-16T06:37:44;24.53;;;16.10;;
2728;SDS011;1372;47.956;7.830;2022-10-16T06:40:14;8.63;;;5.57;;
2728;SDS011;1372;47.956;7.830;2022-10-16T06:42:43;7.63;;;3.50;;
2728;SDS011;1372;47.956;7.830;2022-10-16T06:45:14;36.80;;;23.67;;
2728;SDS011;1372;47.956;7.830;2022-10-16T06:47:42;23.30;;;18.80;;
2728;SDS011;1372;47.956;7.830;2022-10-16T06:50:13;12.53;;;9.53;;
2728;SDS011;1372;47.956;7.830;2022-10-16T06:52:42;6.63;;;5.43;;
2728;SDS011;1372;47.956;7.830;2022-10-16T06:55:11;6.27;;;5.17;;
2728;SDS011;1372;47.956;7.830;2022-10-16T06:57:43;12.00;;;9.70;;
2728;SDS011;1372;47.956;7.830;2022-10-16T07:00:17;11.93;;;10.70;;
2728;SDS011;1372;47.956;7.830;2022-10-16T07:02:45;6.57;;;5.83;;
2728;SDS011;1372;47.956;7.830;2022-10-16T07:05:14;6.80;;;4.50;;
2728;SDS011;1372;47.956;7.830;2022-10-16T07:07:44;3.43;;;3.13;;
2728;SDS011;1372;47.956;7.830;2022-10-16T07:10:13;3.73;;;3.20;;
2728;SDS011;1372;47.956;7.830;2022-10-16T07:12:41;6.00;;;3.77;;
2728;SDS011;1372;47.956;7.830;2022-10-16T07:15:11;3.47;;;3.17;;
2728;SDS011;1372;47.956;7.830;2022-10-16T07:17:40;4.83;;;3.87;;
2728;SDS011;1372;47.956;7.830;2022-10-16T07:20:12;4.27;;;3.87;;
2728;SDS011;1372;47.956;7.830;2022-10-16T07:22:40;4.60;;;3.70;;
2728;SDS011;1372;47.956;7.830;2022-10-16T07:25:10;4.30;;;3.73;;
2728;SDS011;1372;47.956;7.830;2022-10-16T07:27:39;2.93;;;2.00;;
2728;SDS011;1372;47.956;7.830;2022-10-16T07:30:08;2.33;;;2.13;;
2728;SDS011;1372;47.956;7.830;2022-10-16T07:32:38;3.83;;;3.40;;
2728;SDS011;1372;47.956;7.830;2022-10-16T07:35:09;3.37;;;3.07;;
2728;SDS011;1372;47.956;7.830;2022-10-16T07:37:37;3.50;;;2.60;;
2728;SDS011;1372;47.956;7.830;2022-10-16T07:40:14;4.50;;;2.43;;
2728;SDS011;1372;47.956;7.830;2022-10-16T07:42:43;2.67;;;1.93;;
2728;SDS011;1372;47.956;7.830;2022-10-16T07:45:11;3.43;;;2.20;;
2728;SDS011;1372;47.956;7.830;2022-10-16T07:47:40;3.27;;;2.97;;
2728;SDS011;1372;47.956;7.830;2022-10-16T07:50:10;2.70;;;2.50;;
2728;SDS011;1372;47.956;7.830;2022-10-16T07:52:39;3.60;;;2.27;;
2728;SDS011;1372;47.956;7.830;2022-10-16T07:55:08;3.73;;;2.30;;
2728;SDS011;1372;47.956;7.830;2022-10-16T07:57:38;3.23;;;2.93;;
2728;SDS011;1372;47.956;7.830;2022-10-16T08:00:09;2.07;;;1.87;;
2728;SDS011;1372;47.956;7.830;2022-10-16T08:02:40;1.50;;;1.40;;
2728;SDS011;1372;47.956;7.830;2022-10-16T08:05:08;2.07;;;1.83;;
2728;SDS011;1372;47.956;7.830;2022-10-16T08:07:37;2.77;;;2.30;;
2728;SDS011;1372;47.956;7.830;2022-10-16T08:10:10;11.50;;;9.57;;
2728;SDS011;1372;47.956;7.830;2022-10-16T08:12:45;9.67;;;8.17;;
2728;SDS011;1372;47.956;7.830;2022-10-16T08:15:14;5.57;;;4.50;;
2728;SDS011;1372;47.956;7.830;2022-10-16T08:17:43;3.40;;;2.80;;
2728;SDS011;1372;47.956;7.830;2022-10-16T08:20:11;3.20;;;2.10;;
2728;SDS011;1372;47.956;7.830;2022-10-16T08:22:40;5.60;;;5.03;;
2728;SDS011;1372;47.956;7.830;2022-10-16T08:25:10;6.63;;;5.40;;
2728;SDS011;1372;47.956;7.830;2022-10-16T08:27:42;4.03;;;3.60;;
2728;SDS011;1372;47.956;7.830;2022-10-16T08:30:12;6.47;;;5.20;;
2728;SDS011;1372;47.956;7.830;2022-10-16T08:32:41;6.83;;;4.73;;
2728;SDS011;1372;47.956;7.830;2022-10-16T08:35:10;35.00;;;25.47;;
2728;SDS011;1372;47.956;7.830;2022-10-16T08:37:41;21.47;;;18.40;;
2728;SDS011;1372;47.956;7.830;2022-10-16T08:40:15;13.03;;;10.10;;
2728;SDS011;1372;47.956;7.830;2022-10-16T08:42:51;10.20;;;8.37;;
2728;SDS011;1372;47.956;7.830;2022-10-16T08:45:48;9.27;;;6.97;;
2728;SDS011;1372;47.956;7.830;2022-10-16T08:48:42;20.27;;;15.80;;
2728;SDS011;1372;47.956;7.830;2022-10-16T08:51:17;19.63;;;17.00;;
2728;SDS011;1372;47.956;7.830;2022-10-16T08:53:51;9.20;;;7.60;;
2728;SDS011;1372;47.956;7.830;2022-10-16T08:56:25;5.27;;;4.77;;
2728;SDS011;1372;47.956;7.830;2022-10-16T08:58:54;4.00;;;3.40;;
2728;SDS011;1372;47.956;7.830;2022-10-16T09:01:37;3.90;;;3.47;;
2728;SDS011;1372;47.956;7.830;2022-10-16T09:04:30;5.60;;;4.27;;
2728;SDS011;1372;47.956;7.830;2022-10-16T09:07:35;3.13;;;2.30;;
2728;SDS011;1372;47.956;7.830;2022-10-16T09:10:17;2.20;;;2.00;;
2728;SDS011;1372;47.956;7.830;2022-10-16T09:13:00;2.67;;;2.33;;
2728;SDS011;1372;47.956;7.830;2022-10-16T09:15:39;3.10;;;1.63;;
2728;SDS011;1372;47.956;7.830;2022-10-16T09:18:19;2.00;;;1.77;;
2728;SDS011;1372;47.956;7.830;2022-10-16T09:20:57;1.50;;;1.37;;
2728;SDS011;1372;47.956;7.830;2022-10-16T09:23:34;1.57;;;1.47;;
2728;SDS011;1372;47.956;7.830;2022-10-16T09:26:04;3.47;;;1.60;;
2728;SDS011;1372;47.956;7.830;2022-10-16T09:28:38;1.93;;;1.57;;
2728;SDS011;1372;47.956;7.830;2022-10-16T09:31:10;3.80;;;1.53;;
2728;SDS011;1372;47.956;7.830;2022-10-16T09:33:47;1.80;;;1.60;;
2728;SDS011;1372;47.956;7.830;2022-10-16T09:36:21;3.50;;;1.27;;
2728;SDS011;1372;47.956;7.830;2022-10-16T09:39:01;1.47;;;1.23;;
2728;SDS011;1372;47.956;7.830;2022-10-16T09:41:33;1.53;;;1.20;;
2728;SDS011;1372;47.956;7.830;2022-10-16T09:44:04;0.93;;;0.90;;
2728;SDS011;1372;47.956;7.830;2022-10-16T09:46:45;1.10;;;1.00;;
2728;SDS011;1372;47.956;7.830;2022-10-16T09:49:22;1.57;;;0.93;;
2728;SDS011;1372;47.956;7.830;2022-10-16T09:52:02;2.17;;;1.00;;
2728;SDS011;1372;47.956;7.830;2022-10-16T09:54:32;1.30;;;1.20;;
2728;SDS011;1372;47.956;7.830;2022-10-16T09:57:05;1.80;;;1.13;;
2728;SDS011;1372;47.956;7.830;2022-10-16T09:59:44;3.67;;;1.40;;
2728;SDS011;1372;47.956;7.830;2022-10-16T10:02:15;1.70;;;1.50;;
2728;SDS011;1372;47.956;7.830;2022-10-16T10:04:49;1.00;;;1.00;;
2728;SDS011;1372;47.956;7.830;2022-10-16T10:07:23;1.43;;;1.00;;
2728;SDS011;1372;47.956;7.830;2022-10-16T10:09:54;1.20;;;1.10;;
2728;SDS011;1372;47.956;7.830;2022-10-16T10:12:25;1.10;;;1.10;;
2728;SDS011;1372;47.956;7.830;2022-10-16T10:15:03;1.30;;;1.20;;
2728;SDS011;1372;47.956;7.830;2022-10-16T10:17:44;1.60;;;1.10;;
2728;SDS011;1372;47.956;7.830;2022-10-16T10:20:23;1.53;;;1.40;;
2728;SDS011;1372;47.956;7.830;2022-10-16T10:22:55;1.20;;;1.10;;
2728;SDS011;1372;47.956;7.830;2022-10-16T10:25:31;1.20;;;1.10;;
2728;SDS011;1372;47.956;7.830;2022-10-16T10:28:18;1.10;;;1.00;;
2728;SDS011;1372;47.956;7.830;2022-10-16T10:30:59;1.30;;;1.20;;
2728;SDS011;1372;47.956;7.830;2022-10-16T10:33:37;1.27;;;1.13;;
2728;SDS011;1372;47.956;7.830;2022-10-16T10:36:16;1.60;;;1.30;;
2728;SDS011;1372;47.956;7.830;2022-10-16T10:38:57;1.30;;;1.17;;
2728;SDS011;1372;47.956;7.830;2022-10-16T10:44:35;2.70;;;1.20;;
2728;SDS011;1372;47.956;7.830;2022-10-16T10:47:21;4.47;;;1.57;;
2728;SDS011;1372;47.956;7.830;2022-10-16T10:50:07;0.87;;;0.87;;
2728;SDS011;1372;47.956;7.830;2022-10-16T10:52:50;1.33;;;1.10;;
2728;SDS011;1372;47.956;7.830;2022-10-16T10:55:31;2.10;;;1.30;;
2728;SDS011;1372;47.956;7.830;2022-10-16T10:58:14;4.03;;;1.67;;
2728;SDS011;1372;47.956;7.830;2022-10-16T11:01:12;1.40;;;1.30;;
2728;SDS011;1372;47.956;7.830;2022-10-16T11:03:55;2.10;;;1.70;;
2728;SDS011;1372;47.956;7.830;2022-10-16T11:06:42;1.30;;;1.20;;
2728;SDS011;1372;47.956;7.830;2022-10-16T11:09:17;1.20;;;1.10;;
2728;SDS011;1372;47.956;7.830;2022-10-16T11:11:52;1.03;;;1.00;;
2728;SDS011;1372;47.956;7.830;2022-10-16T11:14:26;1.23;;;1.13;;
2728;SDS011;1372;47.956;7.830;2022-10-16T11:17:02;1.63;;;1.10;;
2728;SDS011;1372;47.956;7.830;2022-10-16T11:19:39;2.00;;;1.27;;
2728;SDS011;1372;47.956;7.830;2022-10-16T11:22:13;2.00;;;1.30;;
2728;SDS011;1372;47.956;7.830;2022-10-16T11:24:51;1.73;;;1.47;;
2728;SDS011;1372;47.956;7.830;2022-10-16T11:27:31;1.50;;;1.40;;
2728;SDS011;1372;47.956;7.830;2022-10-16T11:30:05;1.33;;;1.23;;
2728;SDS011;1372;47.956;7.830;2022-10-16T11:32:49;1.93;;;1.40;;
2728;SDS011;1372;47.956;7.830;2022-10-16T11:35:37;1.60;;;1.50;;
2728;SDS011;1372;47.956;7.830;2022-10-16T11:38:14;2.37;;;2.17;;
2728;SDS011;1372;47.956;7.830;2022-10-16T11:40:50;3.70;;;3.27;;
2728;SDS011;1372;47.956;7.830;2022-10-16T11:43:27;1.50;;;1.40;;
2728;SDS011;1372;47.956;7.830;2022-10-16T11:46:02;2.20;;;1.57;;
2728;SDS011;1372;47.956;7.830;2022-10-16T11:48:41;2.97;;;1.17;;
2728;SDS011;1372;47.956;7.830;2022-10-16T11:51:18;0.90;;;0.90;;
2728;SDS011;1372;47.956;7.830;2022-10-16T11:53:53;1.07;;;0.90;;
2728;SDS011;1372;47.956;7.830;2022-10-16T11:56:29;2.13;;;1.90;;
2728;SDS011;1372;47.956;7.830;2022-10-16T11:59:07;2.00;;;1.30;;
2728;SDS011;1372;47.956;7.830;2022-10-16T12:01:46;1.97;;;1.30;;
2728;SDS011;1372;47.956;7.830;2022-10-16T12:04:21;1.77;;;1.20;;
2728;SDS011;1372;47.956;7.830;2022-10-16T12:07:02;0.90;;;0.90;;
2728;SDS011;1372;47.956;7.830;2022-10-16T12:09:34;1.07;;;0.97;;
2728;SDS011;1372;47.956;7.830;2022-10-16T12:18:20;1.33;;;1.23;;
2728;SDS011;1372;47.956;7.830;2022-10-16T12:20:54;1.30;;;1.20;;
2728;SDS011;1372;47.956;7.830;2022-10-16T12:23:27;2.73;;;1.50;;
2728;SDS011;1372;47.956;7.830;2022-10-16T12:25:56;0.90;;;0.90;;
2728;SDS011;1372;47.956;7.830;2022-10-16T12:28:28;1.37;;;1.27;;
2728;SDS011;1372;47.956;7.830;2022-10-16T12:30:59;1.53;;;1.43;;
2728;SDS011;1372;47.956;7.830;2022-10-16T12:33:31;2.00;;;1.60;;
2728;SDS011;1372;47.956;7.830;2022-10-16T12:36:03;1.20;;;1.10;;
2728;SDS011;1372;47.956;7.830;2022-10-16T12:38:44;1.27;;;1.17;;
2728;SDS011;1372;47.956;7.830;2022-10-16T12:41:24;0.93;;;0.93;;
2728;SDS011;1372;47.956;7.830;2022-10-16T12:43:57;1.30;;;1.20;;
2728;SDS011;1372;47.956;7.830;2022-10-16T12:46:35;1.20;;;1.10;;
2728;SDS011;1372;47.956;7.830;2022-10-16T12:49:17;1.63;;;1.50;;
2728;SDS011;1372;47.956;7.830;2022-10-16T12:51:52;3.50;;;1.27;;
2728;SDS011;1372;47.956;7.830;2022-10-16T12:54:25;1.20;;;1.20;;
2728;SDS011;1372;47.956;7.830;2022-10-16T13:00:03;1.40;;;1.30;;
2728;SDS011;1372;47.956;7.830;2022-10-16T13:06:10;1.40;;;1.30;;
2728;SDS011;1372;47.956;7.830;2022-10-16T13:09:00;2.10;;;1.17;;
2728;SDS011;1372;47.956;7.830;2022-10-16T13:17:55;1.60;;;1.50;;
2728;SDS011;1372;47.956;7.830;2022-10-16T13:20:34;1.47;;;1.37;;
2728;SDS011;1372;47.956;7.830;2022-10-16T13:23:29;1.53;;;1.43;;
2728;SDS011;1372;47.956;7.830;2022-10-16T13:26:09;1.30;;;1.20;;
2728;SDS011;1372;47.956;7.830;2022-10-16T13:28:48;1.43;;;1.33;;
2728;SDS011;1372;47.956;7.830;2022-10-16T13:31:21;1.53;;;1.43;;
2728;SDS011;1372;47.956;7.830;2022-10-16T13:33:52;1.83;;;1.70;;
2728;SDS011;1372;47.956;7.830;2022-10-16T13:36:26;1.30;;;1.20;;
2728;SDS011;1372;47.956;7.830;2022-10-16T13:38:59;1.10;;;1.10;;
2728;SDS011;1372;47.956;7.830;2022-10-16T13:41:40;1.47;;;1.20;;
2728;SDS011;1372;47.956;7.830;2022-10-16T13:44:13;1.33;;;1.23;;
2728;SDS011;1372;47.956;7.830;2022-10-16T13:46:49;1.50;;;1.40;;
2728;SDS011;1372;47.956;7.830;2022-10-16T13:49:27;1.53;;;1.30;;
2728;SDS011;1372;47.956;7.830;2022-10-16T13:51:56;1.60;;;1.50;;
2728;SDS011;1372;47.956;7.830;2022-10-16T13:54:27;1.10;;;1.00;;
2728;SDS011;1372;47.956;7.830;2022-10-16T13:57:04;1.40;;;1.30;;
2728;SDS011;1372;47.956;7.830;2022-10-16T13:59:52;1.30;;;1.20;;
2728;SDS011;1372;47.956;7.830;2022-10-16T14:02:29;1.50;;;1.40;;
2728;SDS011;1372;47.956;7.830;2022-10-16T14:05:02;2.23;;;1.33;;
2728;SDS011;1372;47.956;7.830;2022-10-16T14:07:34;1.97;;;1.37;;
2728;SDS011;1372;47.956;7.830;2022-10-16T14:10:04;2.63;;;2.17;;
2728;SDS011;1372;47.956;7.830;2022-10-16T14:12:53;2.17;;;2.07;;
2728;SDS011;1372;47.956;7.830;2022-10-16T14:15:28;2.30;;;1.73;;
2728;SDS011;1372;47.956;7.830;2022-10-16T14:18:02;2.83;;;2.20;;
2728;SDS011;1372;47.956;7.830;2022-10-16T14:20:32;2.70;;;2.10;;
2728;SDS011;1372;47.956;7.830;2022-10-16T14:23:04;2.23;;;1.60;;
2728;SDS011;1372;47.956;7.830;2022-10-16T14:25:47;1.50;;;1.40;;
2728;SDS011;1372;47.956;7.830;2022-10-16T14:28:19;1.40;;;1.30;;
2728;SDS011;1372;47.956;7.830;2022-10-16T14:30:51;1.93;;;1.83;;
2728;SDS011;1372;47.956;7.830;2022-10-16T14:33:24;3.17;;;1.83;;
2728;SDS011;1372;47.956;7.830;2022-10-16T14:36:03;2.17;;;1.57;;
2728;SDS011;1372;47.956;7.830;2022-10-16T14:38:39;3.57;;;1.93;;
2728;SDS011;1372;47.956;7.830;2022-10-16T14:41:10;1.37;;;1.30;;
2728;SDS011;1372;47.956;7.830;2022-10-16T14:43:41;2.20;;;1.40;;
2728;SDS011;1372;47.956;7.830;2022-10-16T14:46:17;1.43;;;1.33;;
2728;SDS011;1372;47.956;7.830;2022-10-16T14:48:50;7.03;;;3.70;;
2728;SDS011;1372;47.956;7.830;2022-10-16T14:51:23;3.30;;;2.97;;
2728;SDS011;1372;47.956;7.830;2022-10-16T14:53:52;5.70;;;2.20;;
2728;SDS011;1372;47.956;7.830;2022-10-16T14:56:27;3.53;;;2.60;;
2728;SDS011;1372;47.956;7.830;2022-10-16T14:59:02;1.50;;;1.40;;
2728;SDS011;1372;47.956;7.830;2022-10-16T15:01:31;1.47;;;1.37;;
2728;SDS011;1372;47.956;7.830;2022-10-16T15:04:01;2.33;;;1.97;;
2728;SDS011;1372;47.956;7.830;2022-10-16T15:06:32;3.40;;;2.00;;
2728;SDS011;1372;47.956;7.830;2022-10-16T15:09:00;2.27;;;1.90;;
2728;SDS011;1372;47.956;7.830;2022-10-16T15:11:29;2.10;;;1.90;;
2728;SDS011;1372;47.956;7.830;2022-10-16T15:14:00;2.50;;;2.10;;
2728;SDS011;1372;47.956;7.830;2022-10-16T15:16:30;2.47;;;1.63;;
2728;SDS011;1372;47.956;7.830;2022-10-16T15:19:00;2.43;;;1.90;;
2728;SDS011;1372;47.956;7.830;2022-10-16T15:21:32;2.20;;;1.70;;
2728;SDS011;1372;47.956;7.830;2022-10-16T15:24:00;1.97;;;1.73;;
2728;SDS011;1372;47.956;7.830;2022-10-16T15:26:29;1.73;;;1.50;;
2728;SDS011;1372;47.956;7.830;2022-10-16T15:28:58;1.60;;;1.50;;
2728;SDS011;1372;47.956;7.830;2022-10-16T15:31:26;6.30;;;2.83;;
2728;SDS011;1372;47.956;7.830;2022-10-16T15:33:55;4.20;;;3.80;;
2728;SDS011;1372;47.956;7.830;2022-10-16T15:36:32;4.57;;;3.37;;
2728;SDS011;1372;47.956;7.830;2022-10-16T15:39:04;8.67;;;3.37;;
2728;SDS011;1372;47.956;7.830;2022-10-16T15:41:39;3.00;;;2.50;;
2728;SDS011;1372;47.956;7.830;2022-10-16T15:44:09;3.93;;;1.70;;
2728;SDS011;1372;47.956;7.830;2022-10-16T15:46:40;2.47;;;1.60;;
2728;SDS011;1372;47.956;7.830;2022-10-16T15:49:08;1.50;;;1.40;;
2728;SDS011;1372;47.956;7.830;2022-10-16T15:51:40;2.07;;;1.87;;
2728;SDS011;1372;47.956;7.830;2022-10-16T15:54:09;3.37;;;2.73;;
2728;SDS011;1372;47.956;7.830;2022-10-16T15:56:38;7.93;;;4.67;;
2728;SDS011;1372;47.956;7.830;2022-10-16T15:59:06;8.30;;;4.10;;
2728;SDS011;1372;47.956;7.830;2022-10-16T16:01:35;5.53;;;3.70;;
2728;SDS011;1372;47.956;7.830;2022-10-16T16:04:04;4.20;;;3.00;;
2728;SDS011;1372;47.956;7.830;2022-10-16T16:06:42;4.23;;;2.40;;
2728;SDS011;1372;47.956;7.830;2022-10-16T16:09:12;2.40;;;2.00;;
2728;SDS011;1372;47.956;7.830;2022-10-16T16:11:41;2.07;;;1.90;;
2728;SDS011;1372;47.956;7.830;2022-10-16T16:14:14;3.47;;;2.90;;
2728;SDS011;1372;47.956;7.830;2022-10-16T16:16:45;2.60;;;2.37;;